createdAt,value
2019-04-14T00:01:13.178Z,6.00
2019-04-14T00:03:45.419Z,5.90
2019-04-14T00:06:13.593Z,5.70
2019-04-14T00:08:41.565Z,5.80
2019-04-14T00:11:08.468Z,5.80
2019-04-14T00:13:37.097Z,6.00
2019-04-14T00:16:05.090Z,6.00
2019-04-14T00:18:35.898Z,6.00
2019-04-14T00:21:04.772Z,5.90
2019-04-14T00:23:32.623Z,5.90
2019-04-14T00:26:25.214Z,6.00
2019-04-14T00:28:53.551Z,5.90
2019-04-14T00:31:21.639Z,5.90
2019-04-14T00:33:49.865Z,6.00
2019-04-14T00:36:19.777Z,6.10
2019-04-14T00:38:49.908Z,6.00
2019-04-14T00:41:34.345Z,6.00
2019-04-14T00:43:53.555Z,6.00
2019-04-14T00:46:25.482Z,6.20
2019-04-14T00:48:53.814Z,6.40
2019-04-14T00:51:20.652Z,6.30
2019-04-14T00:53:49.057Z,6.00
2019-04-14T00:56:17.121Z,5.80
2019-04-14T00:58:43.849Z,5.80
2019-04-14T01:01:11.212Z,5.70
2019-04-14T01:03:37.970Z,5.60
2019-04-14T01:06:05.439Z,5.60
2019-04-14T01:08:33.424Z,5.60
2019-04-14T01:11:01.004Z,5.70
2019-04-14T01:13:28.816Z,5.70
2019-04-14T01:16:03.907Z,5.80
2019-04-14T01:18:25.423Z,5.80
2019-04-14T01:20:53.529Z,5.60
2019-04-14T01:23:21.557Z,5.70
2019-04-14T01:25:48.458Z,5.50
2019-04-14T01:28:15.824Z,5.60
2019-04-14T01:30:43.627Z,5.70
2019-04-14T01:33:10.440Z,5.70
2019-04-14T01:35:37.904Z,5.70
2019-04-14T01:38:05.806Z,5.90
2019-04-14T01:40:33.785Z,5.90
2019-04-14T01:43:01.703Z,5.80
2019-04-14T01:45:29.598Z,5.80
2019-04-14T01:47:57.404Z,5.70
2019-04-14T01:50:26.161Z,5.60
2019-04-14T01:53:01.177Z,5.60
2019-04-14T01:55:33.126Z,5.60
2019-04-14T01:58:07.849Z,5.60
2019-04-14T02:00:42.815Z,5.70
2019-04-14T02:03:10.588Z,5.70
2019-04-14T02:05:38.509Z,5.80
2019-04-14T02:08:06.823Z,5.90
2019-04-14T02:10:34.726Z,5.80
2019-04-14T02:13:02.916Z,5.80
2019-04-14T02:15:30.807Z,5.70
2019-04-14T02:17:58.791Z,5.70
2019-04-14T02:20:25.722Z,5.60
2019-04-14T02:22:53.139Z,5.60
2019-04-14T02:25:20.989Z,5.70
2019-04-14T02:27:49.235Z,5.80
2019-04-14T02:30:20.828Z,5.70
2019-04-14T02:33:13.843Z,5.70
2019-04-14T02:35:47.289Z,5.70
2019-04-14T02:38:29.145Z,5.50
2019-04-14T02:43:16.816Z,5.50
2019-04-14T02:46:38.406Z,5.50
2019-04-14T02:48:15.133Z,5.40
2019-04-14T02:50:30.296Z,5.50
2019-04-14T02:53:07.765Z,5.50
2019-04-14T02:55:38.337Z,5.60
2019-04-14T02:58:03.805Z,5.70
2019-04-14T03:02:56.437Z,5.70
2019-04-14T03:05:26.861Z,5.60
2019-04-14T03:07:59.946Z,5.60
2019-04-14T03:12:57.809Z,5.60
2019-04-14T03:15:25.301Z,5.40
2019-04-14T03:20:54.791Z,5.50
2019-04-14T03:23:34.868Z,5.50
2019-04-14T03:26:17.996Z,5.40
2019-04-14T03:28:44.198Z,5.30
2019-04-14T03:38:55.032Z,5.20
2019-04-14T03:41:17.471Z,5.20
2019-04-14T03:43:39.317Z,5.20
2019-04-14T03:51:15.126Z,5.30
2019-04-14T03:53:34.702Z,5.20
2019-04-14T03:55:55.478Z,5.30
2019-04-14T03:58:18.387Z,5.20
2019-04-14T04:00:46.464Z,5.10
2019-04-14T04:03:13.547Z,5.10
2019-04-14T04:05:41.246Z,5.00
2019-04-14T04:08:09.275Z,4.80
2019-04-14T04:10:55.415Z,4.80
2019-04-14T04:13:22.105Z,4.70
2019-04-14T04:15:50.023Z,5.00
2019-04-14T04:18:24.372Z,5.00
2019-04-14T04:20:58.947Z,5.00
2019-04-14T04:23:28.971Z,5.00
2019-04-14T04:25:57.813Z,5.00
2019-04-14T04:28:45.082Z,5.10
2019-04-14T04:31:17.787Z,5.10
2019-04-14T04:34:03.305Z,5.10
2019-04-14T04:36:48.807Z,5.10
2019-04-14T04:39:17.504Z,5.10
2019-04-14T04:41:45.062Z,5.00
2019-04-14T04:44:11.777Z,5.00
2019-04-14T04:46:39.486Z,5.10
2019-04-14T04:49:13.538Z,5.00
2019-04-14T04:51:35.621Z,4.90
2019-04-14T04:54:03.874Z,5.00
2019-04-14T04:56:31.808Z,5.10
2019-04-14T04:58:58.939Z,5.20
2019-04-14T05:01:25.689Z,5.20
2019-04-14T05:03:53.535Z,5.10
2019-04-14T05:06:54.772Z,5.10
2019-04-14T05:09:29.598Z,4.80
2019-04-14T05:12:11.034Z,4.70
2019-04-14T05:14:52.378Z,4.60
2019-04-14T05:17:21.297Z,4.50
2019-04-14T05:19:48.084Z,4.40
2019-04-14T05:22:17.437Z,4.30
2019-04-14T05:24:44.070Z,4.30
2019-04-14T05:27:10.921Z,4.40
2019-04-14T05:29:38.587Z,4.50
2019-04-14T05:32:06.641Z,4.40
2019-04-14T05:34:34.553Z,4.40
2019-04-14T05:37:02.831Z,4.60
2019-04-14T05:39:30.697Z,4.70
2019-04-14T05:42:07.686Z,4.70
2019-04-14T05:44:27.477Z,4.70
2019-04-14T05:46:56.059Z,4.70
2019-04-14T05:49:31.156Z,4.90
2019-04-14T05:51:52.354Z,4.90
2019-04-14T05:54:19.169Z,4.80
2019-04-14T05:56:47.206Z,5.00
2019-04-14T05:59:13.860Z,5.20
2019-04-14T06:01:41.938Z,5.10
2019-04-14T06:04:09.352Z,5.10
2019-04-14T06:06:36.171Z,5.00
2019-04-14T06:09:06.473Z,4.70
2019-04-14T06:11:33.266Z,4.80
2019-04-14T06:13:59.899Z,4.70
2019-04-14T06:16:26.545Z,4.70
2019-04-14T06:18:53.230Z,4.80
2019-04-14T06:21:20.094Z,4.90
2019-04-14T06:23:47.204Z,4.80
2019-04-14T06:26:14.074Z,4.80
2019-04-14T06:28:41.156Z,4.80
2019-04-14T06:31:09.883Z,4.90
2019-04-14T06:33:42.859Z,4.90
2019-04-14T06:36:29.828Z,4.90
2019-04-14T06:39:16.341Z,4.90
2019-04-14T06:41:46.698Z,5.00
2019-04-14T06:44:15.948Z,4.70
2019-04-14T06:46:43.220Z,4.70
2019-04-14T06:49:10.024Z,4.90
2019-04-14T06:51:37.027Z,5.10
2019-04-14T06:54:03.975Z,5.10
2019-04-14T06:56:31.068Z,5.20
2019-04-14T06:58:58.477Z,5.30
2019-04-14T07:01:26.827Z,5.20
2019-04-14T07:03:53.778Z,5.30
2019-04-14T07:06:20.666Z,5.30
2019-04-14T07:08:47.429Z,5.40
2019-04-14T07:11:16.447Z,5.40
2019-04-14T07:13:47.971Z,5.50
2019-04-14T07:16:14.776Z,5.40
2019-04-14T07:18:41.913Z,5.20
2019-04-14T07:21:08.995Z,5.40
2019-04-14T07:23:35.757Z,5.60
2019-04-14T07:26:02.838Z,5.70
2019-04-14T07:28:29.602Z,5.70
2019-04-14T07:31:01.606Z,5.50
2019-04-14T07:33:46.967Z,5.40
2019-04-14T07:36:34.630Z,5.30
2019-04-14T07:39:18.768Z,5.30
2019-04-14T07:41:53.305Z,5.10
2019-04-14T07:44:41.813Z,5.20
2019-04-14T07:47:29.201Z,5.20
2019-04-14T07:50:14.935Z,5.20
2019-04-14T07:52:48.875Z,5.40
2019-04-14T07:55:19.330Z,5.60
2019-04-14T07:57:54.318Z,5.50
2019-04-14T08:00:37.020Z,5.60
2019-04-14T08:03:13.857Z,5.90
2019-04-14T08:05:42.499Z,6.00
2019-04-14T08:08:10.440Z,6.00
2019-04-14T08:10:39.875Z,5.90
2019-04-14T08:13:07.031Z,5.90
2019-04-14T08:15:34.448Z,5.90
2019-04-14T08:18:03.985Z,6.10
2019-04-14T08:20:31.147Z,6.20
2019-04-14T08:23:00.561Z,6.30
2019-04-14T08:25:33.139Z,6.50
2019-04-14T08:28:00.173Z,6.70
2019-04-14T08:30:30.015Z,6.90
2019-04-14T08:33:14.925Z,7.10
2019-04-14T08:35:42.719Z,7.20
2019-04-14T08:38:09.725Z,7.20
2019-04-14T08:40:45.370Z,7.30
2019-04-14T08:43:34.395Z,7.70
2019-04-14T08:49:30.415Z,7.70
2019-04-14T08:52:16.057Z,7.60
2019-04-14T08:54:58.206Z,7.70
2019-04-14T08:57:40.627Z,7.70
2019-04-14T09:00:16.723Z,8.00
2019-04-14T09:03:02.621Z,8.20
2019-04-14T09:05:31.595Z,8.20
2019-04-14T09:08:03.935Z,8.30
2019-04-14T09:10:47.213Z,8.30
2019-04-14T09:13:14.234Z,8.20
2019-04-14T09:15:40.917Z,8.10
2019-04-14T09:18:14.603Z,7.90
2019-04-14T09:20:51.691Z,7.90
2019-04-14T09:23:12.132Z,8.00
2019-04-14T09:25:44.913Z,8.00
2019-04-14T09:28:12.077Z,8.20
2019-04-14T09:30:39.545Z,8.20
2019-04-14T09:33:11.423Z,8.00
2019-04-14T09:35:40.463Z,8.00
2019-04-14T09:38:07.301Z,8.20
2019-04-14T09:40:34.125Z,8.50
2019-04-14T09:43:01.060Z,8.40
2019-04-14T09:45:29.169Z,8.50
2019-04-14T09:47:55.949Z,8.70
2019-04-14T09:50:22.821Z,8.70
2019-04-14T09:52:49.614Z,9.00
2019-04-14T09:55:16.729Z,9.20
2019-04-14T09:57:49.728Z,9.10
2019-04-14T10:00:19.383Z,9.00
2019-04-14T10:02:46.887Z,8.90
2019-04-14T10:05:15.377Z,8.60
2019-04-14T10:07:42.298Z,8.60
2019-04-14T10:10:09.435Z,8.50
2019-04-14T10:12:36.460Z,8.60
2019-04-14T10:15:04.329Z,8.90
2019-04-14T10:17:32.823Z,8.90
2019-04-14T10:19:59.877Z,8.80
2019-04-14T10:22:34.156Z,8.80
2019-04-14T10:24:58.379Z,8.70
2019-04-14T10:27:27.878Z,8.70
2019-04-14T10:29:56.779Z,8.60
2019-04-14T10:32:23.939Z,8.60
2019-04-14T10:34:50.806Z,8.20
2019-04-14T10:37:24.553Z,8.10
2019-04-14T10:39:51.782Z,8.10
2019-04-14T10:42:18.532Z,8.10
2019-04-14T10:44:45.493Z,8.20
2019-04-14T10:47:12.380Z,8.10
2019-04-14T10:49:39.536Z,8.20
2019-04-14T10:52:08.073Z,8.30
2019-04-14T10:54:36.732Z,8.20
2019-04-14T10:57:07.829Z,8.10
2019-04-14T10:59:40.318Z,8.10
2019-04-14T11:02:08.568Z,8.20
2019-04-14T11:04:35.922Z,8.00
2019-04-14T11:07:07.043Z,8.10
2019-04-14T11:09:34.193Z,8.60
2019-04-14T11:12:02.791Z,9.10
2019-04-14T11:14:34.481Z,8.70
2019-04-14T11:17:11.967Z,8.70
2019-04-14T11:19:42.677Z,8.80
2019-04-14T11:22:16.604Z,8.90
2019-04-14T11:24:46.975Z,8.80
2019-04-14T11:27:18.035Z,8.70
2019-04-14T11:29:45.291Z,9.00
2019-04-14T11:32:14.547Z,9.30
2019-04-14T11:34:52.263Z,9.50
2019-04-14T11:37:38.396Z,9.50
2019-04-14T11:40:13.520Z,9.40
2019-04-14T11:42:52.102Z,9.20
2019-04-14T11:45:14.162Z,9.20
2019-04-14T11:47:42.537Z,9.20
2019-04-14T11:50:11.629Z,9.20
2019-04-14T11:52:42.589Z,9.20
2019-04-14T11:55:11.992Z,9.20
2019-04-14T11:57:38.957Z,9.40
2019-04-14T12:00:14.641Z,9.50
2019-04-14T12:02:53.481Z,9.70
2019-04-14T12:05:41.803Z,9.80
2019-04-14T12:08:28.000Z,10.20
2019-04-14T12:10:58.872Z,10.40
2019-04-14T12:13:27.063Z,10.20
2019-04-14T12:15:57.783Z,10.70
2019-04-14T12:18:26.837Z,11.00
2019-04-14T12:20:55.876Z,11.20
2019-04-14T12:23:23.222Z,11.20
2019-04-14T12:25:50.402Z,11.50
2019-04-14T12:28:30.111Z,11.70
2019-04-14T12:31:17.441Z,11.80
2019-04-14T12:33:46.381Z,12.20
2019-04-14T12:36:16.626Z,12.20
2019-04-14T12:38:43.714Z,12.20
2019-04-14T12:41:12.684Z,12.40
2019-04-14T12:43:54.885Z,12.70
2019-04-14T12:46:24.076Z,13.00
2019-04-14T12:48:57.569Z,12.80
2019-04-14T12:51:26.596Z,12.60
2019-04-14T12:53:53.522Z,12.60
2019-04-14T12:56:25.695Z,12.60
2019-04-14T12:59:00.483Z,12.80
2019-04-14T13:01:37.457Z,12.60
2019-04-14T13:04:05.821Z,12.60
2019-04-14T13:06:35.100Z,12.40
2019-04-14T13:09:03.594Z,12.60
2019-04-14T13:11:32.569Z,12.90
2019-04-14T13:14:04.066Z,13.10
2019-04-14T13:16:34.107Z,13.30
2019-04-14T13:19:04.479Z,13.50
2019-04-14T13:21:33.610Z,13.20
2019-04-14T13:24:03.979Z,13.50
2019-04-14T13:26:34.351Z,13.60
2019-04-14T13:29:02.967Z,13.50
2019-04-14T13:31:29.874Z,13.50
2019-04-14T13:33:56.552Z,13.60
2019-04-14T13:36:34.890Z,13.60
2019-04-14T13:39:06.084Z,13.40
2019-04-14T13:41:34.924Z,13.20
2019-04-14T13:44:02.512Z,13.20
2019-04-14T13:46:30.206Z,13.10
2019-04-14T13:48:57.184Z,13.10
2019-04-14T13:51:24.713Z,13.30
2019-04-14T13:53:51.540Z,13.40
2019-04-14T13:56:18.930Z,13.60
2019-04-14T13:58:46.431Z,13.70
2019-04-14T14:01:13.819Z,13.70
2019-04-14T14:03:41.679Z,13.70
2019-04-14T14:06:10.874Z,13.60
2019-04-14T14:08:37.754Z,13.60
2019-04-14T14:11:24.721Z,13.10
2019-04-14T14:14:06.540Z,13.20
2019-04-14T14:16:38.759Z,13.20
2019-04-14T14:19:15.802Z,12.90
2019-04-14T14:21:48.565Z,12.70
2019-04-14T14:24:30.395Z,12.90
2019-04-14T14:27:01.276Z,12.90
2019-04-14T14:29:29.029Z,13.20
2019-04-14T14:31:57.524Z,13.20
2019-04-14T14:34:26.684Z,13.10
2019-04-14T14:36:57.597Z,13.20
2019-04-14T14:39:28.024Z,13.00
2019-04-14T14:41:58.188Z,13.00
2019-04-14T14:44:50.214Z,12.90
2019-04-14T14:47:25.155Z,12.80
2019-04-14T14:50:13.324Z,12.80
2019-04-14T14:52:41.285Z,12.90
2019-04-14T14:55:08.520Z,13.00
2019-04-14T14:57:35.882Z,13.00
2019-04-14T15:00:07.912Z,13.00
2019-04-14T15:02:35.217Z,13.20
2019-04-14T15:05:05.052Z,13.50
2019-04-14T15:07:32.253Z,13.60
2019-04-14T15:09:59.324Z,13.60
2019-04-14T15:12:26.459Z,13.60
2019-04-14T15:14:53.344Z,13.70
2019-04-14T15:17:21.253Z,13.50
2019-04-14T15:19:48.329Z,13.40
2019-04-14T15:22:15.329Z,12.90
2019-04-14T15:24:43.262Z,12.80
2019-04-14T15:27:10.018Z,13.00
2019-04-14T15:29:36.820Z,13.00
2019-04-14T15:32:03.792Z,12.90
2019-04-14T15:34:32.218Z,13.00
2019-04-14T15:36:59.082Z,13.00
2019-04-14T15:39:26.254Z,13.10
2019-04-14T15:41:53.279Z,13.00
2019-04-14T15:44:20.303Z,13.00
2019-04-14T15:46:47.083Z,13.10
2019-04-14T15:49:14.328Z,13.10
2019-04-14T15:51:41.273Z,13.10
2019-04-14T15:54:08.786Z,13.00
2019-04-14T15:56:52.899Z,12.90
2019-04-14T15:59:24.711Z,12.90
2019-04-14T16:02:11.637Z,12.90
2019-04-14T16:04:40.424Z,13.00
2019-04-14T16:07:25.729Z,13.10
2019-04-14T16:09:57.140Z,13.10
2019-04-14T16:12:42.517Z,13.00
2019-04-14T16:15:14.927Z,12.70
2019-04-14T16:17:49.708Z,12.80
2019-04-14T16:20:19.164Z,12.80
2019-04-14T16:22:47.251Z,13.00
2019-04-14T16:25:14.851Z,12.90
2019-04-14T16:27:52.958Z,12.90
2019-04-14T16:30:33.620Z,12.90
2019-04-14T16:33:05.580Z,12.80
2019-04-14T16:35:34.365Z,12.90
2019-04-14T16:38:01.363Z,12.90
2019-04-14T16:40:29.482Z,12.90
2019-04-14T16:42:58.865Z,12.80
2019-04-14T16:45:26.905Z,12.70
2019-04-14T16:48:05.570Z,12.70
2019-04-14T16:50:32.524Z,12.70
2019-04-14T16:53:01.438Z,12.80
2019-04-14T16:58:38.021Z,13.00
2019-04-14T17:01:15.533Z,12.90
2019-04-14T17:03:43.113Z,12.90
2019-04-14T17:06:10.387Z,12.90
2019-04-14T17:08:37.901Z,13.00
2019-04-14T17:11:05.402Z,12.90
2019-04-14T17:13:34.247Z,12.90
2019-04-14T17:16:18.467Z,12.80
2019-04-14T17:19:01.139Z,12.70
2019-04-14T17:21:38.412Z,12.90
2019-04-14T17:24:16.465Z,12.80
2019-04-14T17:26:53.315Z,12.70
2019-04-14T17:29:30.177Z,12.70
2019-04-14T17:32:15.695Z,12.70
2019-04-14T17:34:51.281Z,12.80
2019-04-14T17:37:22.979Z,12.90
2019-04-14T17:39:54.285Z,13.00
2019-04-14T17:42:32.047Z,13.10
2019-04-14T17:45:04.396Z,13.00
2019-04-14T17:47:46.834Z,13.10
2019-04-14T17:50:22.378Z,13.10
2019-04-14T17:52:57.098Z,13.20
2019-04-14T17:55:27.580Z,13.00
2019-04-14T17:57:56.379Z,13.00
2019-04-14T18:00:25.230Z,13.00
2019-04-14T18:03:10.889Z,13.00
2019-04-14T18:05:45.757Z,12.90
2019-04-14T18:08:33.801Z,13.00
2019-04-14T18:11:05.924Z,13.00
2019-04-14T18:13:52.856Z,13.00
2019-04-14T18:16:26.589Z,12.90
2019-04-14T18:18:58.073Z,12.80
2019-04-14T18:21:25.134Z,12.80
2019-04-14T18:23:52.204Z,12.80
2019-04-14T18:26:18.992Z,12.70
2019-04-14T18:28:50.400Z,12.70
2019-04-14T18:31:34.123Z,12.70
2019-04-14T18:34:06.831Z,12.60
2019-04-14T18:36:38.244Z,12.60
2019-04-14T18:39:19.959Z,12.60
2019-04-14T18:41:50.050Z,12.60
2019-04-14T18:44:21.351Z,12.60
2019-04-14T18:47:14.660Z,12.50
2019-04-14T18:50:00.918Z,12.50
2019-04-14T18:52:31.252Z,12.40
2019-04-14T18:55:02.679Z,12.20
2019-04-14T18:57:44.186Z,12.20
2019-04-14T19:00:16.579Z,12.10
2019-04-14T19:02:43.294Z,12.00
2019-04-14T19:05:10.283Z,12.00
2019-04-14T19:07:36.983Z,12.00
2019-04-14T19:10:06.870Z,11.90
2019-04-14T19:12:43.428Z,11.80
2019-04-14T19:15:19.668Z,11.80
2019-04-14T19:17:58.312Z,11.80
2019-04-14T19:20:25.955Z,11.70
2019-04-14T19:22:52.820Z,11.60
2019-04-14T19:25:20.035Z,11.50
2019-04-14T19:27:47.626Z,11.40
2019-04-14T19:30:17.864Z,11.40
2019-04-14T19:32:45.183Z,11.30
2019-04-14T19:35:16.263Z,11.20
2019-04-14T19:37:44.318Z,11.20
2019-04-14T19:40:14.106Z,11.30
2019-04-14T19:42:42.607Z,11.20
2019-04-14T19:45:12.252Z,11.10
2019-04-14T19:47:39.134Z,11.10
2019-04-14T19:50:06.135Z,11.00
2019-04-14T19:52:38.392Z,11.00
2019-04-14T19:55:20.283Z,11.00
2019-04-14T19:57:43.745Z,11.00
2019-04-14T20:00:24.858Z,10.90
2019-04-14T20:02:59.564Z,10.80
2019-04-14T20:05:34.186Z,10.80
2019-04-14T20:08:05.614Z,10.80
2019-04-14T20:10:46.325Z,11.00
2019-04-14T20:13:17.909Z,11.00
2019-04-14T20:16:09.592Z,11.00
2019-04-14T20:19:09.792Z,10.80
2019-04-14T20:22:06.107Z,10.70
2019-04-14T20:24:42.522Z,10.60
2019-04-14T20:27:36.400Z,10.60
2019-04-14T20:30:15.298Z,10.70
2019-04-14T20:32:49.523Z,10.80
2019-04-14T20:35:18.306Z,10.90
2019-04-14T20:37:55.191Z,10.80
2019-04-14T20:40:30.286Z,10.90
2019-04-14T20:42:57.743Z,10.90
2019-04-14T20:45:50.773Z,10.90
2019-04-14T20:48:16.711Z,10.80
2019-04-14T20:50:48.363Z,10.70
2019-04-14T20:53:15.479Z,10.80
2019-04-14T20:55:47.234Z,10.80
2019-04-14T20:58:16.298Z,10.70
2019-04-14T21:00:43.377Z,10.60
2019-04-14T21:03:30.750Z,10.70
2019-04-14T21:06:12.153Z,10.70
2019-04-14T21:08:58.159Z,10.60
2019-04-14T21:11:28.374Z,10.40
2019-04-14T21:13:58.560Z,10.30
2019-04-14T21:16:36.355Z,10.30
2019-04-14T21:19:17.385Z,10.30
2019-04-14T21:21:59.362Z,10.40
2019-04-14T21:24:33.896Z,10.40
2019-04-14T21:27:22.238Z,10.40
2019-04-14T21:29:57.767Z,10.40
2019-04-14T21:32:33.616Z,10.20
2019-04-14T21:35:18.917Z,10.20
2019-04-14T21:37:53.701Z,10.30
2019-04-14T21:40:22.490Z,10.30
2019-04-14T21:42:50.795Z,10.30
2019-04-14T21:45:28.722Z,10.40
2019-04-14T21:47:56.709Z,10.30
2019-04-14T21:50:25.683Z,10.20
2019-04-14T21:52:52.818Z,10.20
2019-04-14T21:55:22.360Z,10.10
2019-04-14T21:57:53.286Z,10.10
2019-04-14T22:00:45.934Z,10.10
2019-04-14T22:03:25.816Z,10.20
2019-04-14T22:06:00.998Z,10.10
2019-04-14T22:08:49.048Z,10.10
2019-04-14T22:11:20.786Z,10.00
2019-04-14T22:13:50.761Z,10.00
2019-04-14T22:16:18.443Z,10.00
2019-04-14T22:18:45.473Z,9.90
2019-04-14T22:21:12.746Z,9.90
2019-04-14T22:23:40.610Z,9.90
2019-04-14T22:26:07.598Z,9.80
2019-04-14T22:28:35.034Z,9.80
2019-04-14T22:31:01.882Z,9.70
2019-04-14T22:33:29.264Z,9.70
2019-04-14T22:35:56.097Z,9.60
2019-04-14T22:38:24.508Z,9.60
2019-04-14T22:40:53.576Z,9.60
2019-04-14T22:43:22.496Z,9.60
2019-04-14T22:45:49.530Z,9.50
2019-04-14T22:48:17.016Z,9.50
2019-04-14T22:50:50.778Z,9.40
2019-04-14T22:53:22.178Z,9.40
2019-04-14T22:55:52.047Z,9.40
2019-04-14T22:58:18.980Z,9.30
2019-04-14T23:00:56.417Z,9.30
2019-04-14T23:03:26.974Z,9.40
2019-04-14T23:06:15.656Z,9.40
2019-04-14T23:08:53.233Z,9.30
2019-04-14T23:11:38.314Z,9.20
2019-04-14T23:14:09.576Z,9.20
2019-04-14T23:16:41.203Z,9.10
2019-04-14T23:19:11.884Z,9.10
2019-04-14T23:21:43.311Z,9.20
2019-04-14T23:24:14.867Z,9.20
2019-04-14T23:26:51.856Z,9.20
2019-04-14T23:29:10.908Z,9.10
2019-04-14T23:31:37.940Z,9.20
2019-04-14T23:34:06.150Z,9.20
2019-04-14T23:36:33.168Z,9.10
2019-04-14T23:39:00.233Z,9.10
2019-04-14T23:41:27.071Z,9.20
2019-04-14T23:43:53.740Z,9.10
2019-04-14T23:46:20.604Z,9.00
2019-04-14T23:48:50.537Z,9.00
2019-04-14T23:51:19.145Z,9.10
2019-04-14T23:53:46.972Z,9.00
2019-04-14T23:56:13.636Z,8.90
2019-04-14T23:58:40.398Z,8.90
